Westcliffe, CO (81252)

12:00 AM MDT on October 25, 2014 (GMT -0600)
Courtyard Country Inn | Change Station
CLOSE
Current Station
Personal Weather Station
Location: Westcliffe, CO
Elevation: 7848 ft
Nearby Weather Stations

Elev 7848 ft 38.14 °N, 105.47 °W | Updated 2 hours ago

Clear
Clear
46.3 °F
Feels Like 46 °F
N
0.0
Wind Variable Wind from SSW
Gusts 1.0 mph

Today
High -- | Low -- °F
--% Chance of Precip.
Yesterday
High -- | Low -- °F
Precip. -- in
7:20 AM 6:10 PM
New Moon, 2% visible
Pressure 30.43 in
Visibility 10.0 miles
Clouds Clear
Windchill 46 °F
Dew Point 23 °F
Humidity 40%
Rainfall 0.00 in
Snow Depth Not available.
UV 0 out of 12
Pollen 3.00 out of 12
Air Quality Not available.
Flu Activity Sporadic
METAR K04V 250554Z AUTO 31011KT 10SM CLR 07/M06 A3043 RMK AO2

More Conditions Fewer Conditions

Pressure 30.43 in
Visibility 10.0 miles
Clouds Clear
Windchill 46 °F
Dew Point 23 °F
Humidity 40%
Rainfall 0.00 in
Snow Depth Not available.
UV 0 out of 12
Pollen 3.00 out of 12
Air Quality Not available.
Flu Activity Sporadic
METAR K04V 250554Z AUTO 31011KT 10SM CLR 07/M06 A3043 RMK AO2

More Conditions Fewer Conditions

10-Day Weather Forecast

Almanac

Astronomy

Oct. 25, 2014 Rise Set
Actual Time 7:20 AM MDT 6:10 PM MDT
Civil Twilight 6:53 AM MDT 6:37 PM MDT
Nautical Twilight 6:22 AM MDT 7:08 PM MDT
Astronomical Twilight 5:51 AM MDT 7:38 PM MDT
Moon 9:00 AM MDT 7:36 PM MDT
Length of Visible Light 11h 44m
Length of Day
10h 50m
Tomorrow will be 2m 16s shorter.
New Moon, 2% of the Moon is Illuminated
Today
New Moon
Oct 30
First Quarter
Nov 6
Full
Nov 14
Last Quarter
Nov 22
New

Today's Extremes

State Highs State Lows

Community

WunderPhotos

Upload Photos

1,764,785 photos uploaded!

Nearby

Snow Depth

Station Depth Elevation
South Colony 0 in 10800 ft
Medano Pass 1 in 9620 ft
Ute Creek 0 in 10650 ft
Trinchera 1 in 10860 ft
Glen Cove 1 in 11460 ft

Earthquake Activity

City Distance Mag. Time & Date
No recent earthquake activity has been reported nearby.
Minimum magnitude displayed is 2.5.

Coastal Water Temperatures

Place Temperature
No Stations Reporting

Nearby Weather Stations